MSC Seattle — LXST — position and weather

sailwx.info

Track history (hours):
 
Tides and Currents Weather Stations Pressure Air Temp Water Temp Dewpoint Dewpoint Depression Visibility Wind Speed Wind Dir Waves Ship Positions

MSC Seattle

Last reported at 2017-Sep-15 19:35 UTC. Time now 2017-Sep-20 00:13 UTC.
Position N 33°38' E 034°23'.

Length 299 m; draft 12.5 m.

Type: Ship. MMSI: 253380000.

Date/timePositionNaut miles runAvg speedWind from/ knotsBaromVisibWave heightAir tempDewpointWater temp
2017-Sep-15 19:35N 33°38' E 034°23'513.0
2017-Sep-15 19:10N 33°41' E 034°29'313.0
2017-Sep-15 18:58N 33°42' E 034°32'27 1.4
2017-Sep-14 23:03N 33°57' E 034°58'216.7
2017-Sep-14 22:57N 33°57' E 034°56'1916.7
2017-Sep-14 21:49N 33°59' E 034°33'516.8
2017-Sep-14 21:31N 33°59' E 034°27'816.8
2017-Sep-14 21:01N 33°60' E 034°17'2117.1
2017-Sep-14 19:47N 34°01' E 033°52'617.4
2017-Sep-14 19:26N 34°02' E 033°44'2917.7
2017-Sep-14 17:47N 34°03' E 033°09'517.6
2017-Sep-14 17:31N 34°03' E 033°03'917.6
2017-Sep-14 17:01N 34°04' E 032°53'917.6
2017-Sep-14 16:30N 34°04' E 032°42'917.5
2017-Sep-14 16:00N 34°05' E 032°32'1817.5
2017-Sep-14 14:58N 34°05' E 032°10'817.5
2017-Sep-14 14:31N 34°05' E 031°60'816.9
2017-Sep-14 14:01N 34°06' E 031°50'917.2
2017-Sep-14 13:30N 34°09' E 031°40'917.1
2017-Sep-14 13:01N 34°10' E 031°30'917.4
2017-Sep-14 12:31N 34°11' E 031°19'917.5
2017-Sep-14 12:00N 34°12' E 031°09'917.3
2017-Sep-14 11:31N 34°12' E 030°58'917.1
2017-Sep-14 11:00N 34°13' E 030°48'816.9
2017-Sep-14 10:31N 34°14' E 030°38'816.8
2017-Sep-14 10:01N 34°14' E 030°28'817.0
2017-Sep-14 09:31N 34°15' E 030°18'817.0
2017-Sep-14 09:01N 34°16' E 030°07'9017.1
2017-Sep-14 03:45N 34°23' E 028°19'417.4
2017-Sep-14 03:29N 34°23' E 028°13'66717.1
2017-Sep-12 12:37N 36°16' E 014°48'218.1
2017-Sep-12 12:30N 36°17' E 014°46'918.0
2017-Sep-12 12:00N 36°18' E 014°35'917.8
2017-Sep-12 11:30N 36°21' E 014°24'918.1
2017-Sep-12 11:00N 36°24' E 014°14'918.5
2017-Sep-12 10:30N 36°28' E 014°03'918.7
2017-Sep-12 10:00N 36°32' E 013°52'1018.2
2017-Sep-12 09:26N 36°35' E 013°40'49719.4
2017-Sep-11 07:46N 38°52' E 003°36'921.4
2017-Sep-11 07:21N 38°54' E 003°25'821.6
2017-Sep-11 07:00N 38°56' E 003°16'1121.6
2017-Sep-11 06:30N 38°59' E 003°02'1121.7
2017-Sep-11 06:00N 39°01' E 002°49'1121.6
2017-Sep-11 05:30N 39°04' E 002°35'1121.4
2017-Sep-11 05:00N 39°06' E 002°22'1121.4
2017-Sep-11 04:30N 39°09' E 002°08'1121.6
2017-Sep-11 04:00N 39°11' E 001°55'1121.8
2017-Sep-11 03:30N 39°14' E 001°41'1121.9
2017-Sep-11 03:00N 39°15' E 001°27'1122.1
2017-Sep-11 02:30N 39°16' E 001°13'59 1.4
2017-Sep-09 09:08N 39°16' W 000°03'319.8
2017-Sep-09 09:00N 39°14' W 000°01'1020.0
2017-Sep-09 08:30N 39°07' E 000°08'1020.3
2017-Sep-09 08:00N 39°00' E 000°18'1019.4
2017-Sep-09 07:30N 38°53' E 000°26'1020.5
2017-Sep-09 07:00N 38°43' E 000°28'1019.8
2017-Sep-09 06:30N 38°34' E 000°21'1020.3
2017-Sep-09 06:00N 38°26' E 000°13'1520.3
2017-Sep-09 05:15N 38°13' E 000°03'3219.9
2017-Sep-09 03:39N 37°46' W 000°19'320.0
2017-Sep-09 03:30N 37°44' W 000°21'1019.9
2017-Sep-09 03:00N 37°36' W 000°28'1020.0
2017-Sep-09 02:30N 37°28' W 000°36'1019.9
2017-Sep-09 02:00N 37°20' W 000°45'1019.8
2017-Sep-09 01:30N 37°15' W 000°54'1019.9
2017-Sep-09 01:00N 37°09' W 001°04'9819.0
2017-Sep-08 19:49N 36°17' W 002°49'720.5
2017-Sep-08 19:28N 36°16' W 002°58'11120.1
2017-Sep-08 13:58N 35°60' W 005°13'920.3
2017-Sep-08 13:30N 35°58' W 005°25'8919.2
2017-Sep-08 08:53N 36°05' W 007°14'920.0
2017-Sep-08 08:27N 36°08' W 007°24'5219.8
2017-Sep-08 05:50N 36°22' W 008°26'720.5
2017-Sep-08 05:30N 36°24' W 008°34'1020.2
2017-Sep-08 05:00N 36°27' W 008°46'1020.2
2017-Sep-08 04:30N 36°29' W 008°58'1019.9
2017-Sep-08 04:00N 36°32' W 009°10'1019.1
2017-Sep-08 03:30N 36°37' W 009°21'1020.3
2017-Sep-08 03:00N 36°44' W 009°29'1019.6
2017-Sep-08 02:30N 36°53' W 009°34'1020.1
2017-Sep-08 02:00N 37°03' W 009°37'1019.7
2017-Sep-08 01:30N 37°12' W 009°40'1020.2
2017-Sep-08 01:00N 37°22' W 009°42'1020.5
2017-Sep-08 00:30N 37°32' W 009°44'1020.1
2017-Sep-08 00:00N 37°42' W 009°46'1019.9
2017-Sep-07 23:30N 37°52' W 009°48'1019.5
2017-Sep-07 23:00N 38°02' W 009°51'1020.0
2017-Sep-07 22:30N 38°11' W 009°54'1020.1
2017-Sep-07 22:00N 38°21' W 009°59'1020.5
2017-Sep-07 21:30N 38°31' W 010°01'1019.7
2017-Sep-07 21:00N 38°40' W 010°06'1020.0
2017-Sep-07 20:30N 38°50' W 010°07'1020.4
2017-Sep-07 20:00N 38°60' W 010°07'1020.9
2017-Sep-07 19:30N 39°10' W 010°07'1020.3
2017-Sep-07 19:00N 39°21' W 010°07'1020.6
2017-Sep-07 18:30N 39°31' W 010°07'1020.6
2017-Sep-07 18:00N 39°41' W 010°07'1020.6
2017-Sep-07 17:30N 39°51' W 010°07'1020.4
2017-Sep-07 17:00N 40°02' W 010°07'1020.0
2017-Sep-07 16:30N 40°12' W 010°07'1020.3
2017-Sep-07 16:00N 40°22' W 010°08'1020.2
2017-Sep-07 15:30N 40°32' W 010°08'1020.1
2017-Sep-07 15:00N 40°42' W 010°08'1720.1
2017-Sep-07 14:09N 40°59' W 010°08'319.9
2017-Sep-07 14:00N 41°02' W 010°08'1019.5
2017-Sep-07 13:30N 41°12' W 010°08'1019.7
2017-Sep-07 12:58N 41°22' W 010°08'1020.0
2017-Sep-07 12:29N 41°32' W 010°08'3619.9
2017-Sep-07 10:40N 42°08' W 010°06'50520.6
2017-Sep-06 10:07N 49°29' W 004°11'422.8
2017-Sep-06 09:57N 49°31' W 004°06'1022.3
2017-Sep-06 09:31N 49°36' W 003°53'1121.7
2017-Sep-06 09:01N 49°42' W 003°39'1020.8
2017-Sep-06 08:31N 49°48' W 003°26'1020.3
2017-Sep-06 08:01N 49°53' W 003°12'1019.7
2017-Sep-06 07:31N 49°58' W 002°59'1019.2
2017-Sep-06 07:01N 50°01' W 002°45'2819.2
2017-Sep-06 05:34N 50°08' W 002°03'119.5
2017-Sep-06 05:30N 50°08' W 002°01'1020.4
2017-Sep-06 05:00N 50°11' W 001°46'1121.4
2017-Sep-06 04:30N 50°13' W 001°30'1122.4
2017-Sep-06 04:00N 50°17' W 001°13'1223.5
2017-Sep-06 03:30N 50°20' W 000°55'1923.6
2017-Sep-06 02:43N 50°24' W 000°27'523.2
2017-Sep-06 02:30N 50°25' W 000°20'1122.8
2017-Sep-06 02:00N 50°27' W 000°02'1122.5
2017-Sep-06 01:30N 50°30' E 000°15'1121.9
2017-Sep-06 01:00N 50°34' E 000°32'1121.2
2017-Sep-06 00:30N 50°40' E 000°45'1020.7
2017-Sep-06 00:00N 50°46' E 000°58'1119.7
2017-Sep-05 23:28N 50°53' E 001°11'918.8
2017-Sep-05 23:00N 50°58' E 001°22'918.9
2017-Sep-05 22:30N 51°05' E 001°33'1019.7
2017-Sep-05 22:00N 51°12' E 001°43'1121.1
2017-Sep-05 21:30N 51°20' E 001°54'816.5
2017-Sep-05 21:01N 51°23' E 002°06'1019.3
2017-Sep-05 20:30N 51°21' E 002°21'918.8
2017-Sep-05 20:00N 51°23' E 002°36'  
Track history (hours):
 
Tides and Currents Weather Stations Pressure Air Temp Water Temp Dewpoint Dewpoint Depression Visibility Wind Speed Wind Dir Waves Ship Positions

MSC Seattle

Last reported at 2017-Sep-15 19:35 UTC. Time now 2017-Sep-20 00:13 UTC.
Position N 33°38' E 034°23'.

Length 299 m; draft 12.5 m.

Type: Ship. MMSI: 253380000.

Date/timePositionNaut miles runAvg speedWind from/ knotsBaromVisibWave heightAir tempDewpointWater temp
2017-Sep-15 19:35N 33°38' E 034°23'513.0
2017-Sep-15 19:10N 33°41' E 034°29'313.0
2017-Sep-15 18:58N 33°42' E 034°32'27 1.4
2017-Sep-14 23:03N 33°57' E 034°58'216.7
2017-Sep-14 22:57N 33°57' E 034°56'1916.7
2017-Sep-14 21:49N 33°59' E 034°33'516.8
2017-Sep-14 21:31N 33°59' E 034°27'816.8
2017-Sep-14 21:01N 33°60' E 034°17'2117.1
2017-Sep-14 19:47N 34°01' E 033°52'617.4
2017-Sep-14 19:26N 34°02' E 033°44'2917.7
2017-Sep-14 17:47N 34°03' E 033°09'517.6
2017-Sep-14 17:31N 34°03' E 033°03'917.6
2017-Sep-14 17:01N 34°04' E 032°53'917.6
2017-Sep-14 16:30N 34°04' E 032°42'917.5
2017-Sep-14 16:00N 34°05' E 032°32'1817.5
2017-Sep-14 14:58N 34°05' E 032°10'817.5
2017-Sep-14 14:31N 34°05' E 031°60'816.9
2017-Sep-14 14:01N 34°06' E 031°50'917.2
2017-Sep-14 13:30N 34°09' E 031°40'917.1
2017-Sep-14 13:01N 34°10' E 031°30'917.4
2017-Sep-14 12:31N 34°11' E 031°19'917.5
2017-Sep-14 12:00N 34°12' E 031°09'917.3
2017-Sep-14 11:31N 34°12' E 030°58'917.1
2017-Sep-14 11:00N 34°13' E 030°48'816.9
2017-Sep-14 10:31N 34°14' E 030°38'816.8
2017-Sep-14 10:01N 34°14' E 030°28'817.0
2017-Sep-14 09:31N 34°15' E 030°18'817.0
2017-Sep-14 09:01N 34°16' E 030°07'9017.1
2017-Sep-14 03:45N 34°23' E 028°19'417.4
2017-Sep-14 03:29N 34°23' E 028°13'66717.1
2017-Sep-12 12:37N 36°16' E 014°48'218.1
2017-Sep-12 12:30N 36°17' E 014°46'918.0
2017-Sep-12 12:00N 36°18' E 014°35'917.8
2017-Sep-12 11:30N 36°21' E 014°24'918.1
2017-Sep-12 11:00N 36°24' E 014°14'918.5
2017-Sep-12 10:30N 36°28' E 014°03'918.7
2017-Sep-12 10:00N 36°32' E 013°52'1018.2
2017-Sep-12 09:26N 36°35' E 013°40'49719.4
2017-Sep-11 07:46N 38°52' E 003°36'921.4
2017-Sep-11 07:21N 38°54' E 003°25'821.6
2017-Sep-11 07:00N 38°56' E 003°16'1121.6
2017-Sep-11 06:30N 38°59' E 003°02'1121.7
2017-Sep-11 06:00N 39°01' E 002°49'1121.6
2017-Sep-11 05:30N 39°04' E 002°35'1121.4
2017-Sep-11 05:00N 39°06' E 002°22'1121.4
2017-Sep-11 04:30N 39°09' E 002°08'1121.6
2017-Sep-11 04:00N 39°11' E 001°55'1121.8
2017-Sep-11 03:30N 39°14' E 001°41'1121.9
2017-Sep-11 03:00N 39°15' E 001°27'1122.1
2017-Sep-11 02:30N 39°16' E 001°13'59 1.4
2017-Sep-09 09:08N 39°16' W 000°03'319.8
2017-Sep-09 09:00N 39°14' W 000°01'1020.0
2017-Sep-09 08:30N 39°07' E 000°08'1020.3
2017-Sep-09 08:00N 39°00' E 000°18'1019.4
2017-Sep-09 07:30N 38°53' E 000°26'1020.5
2017-Sep-09 07:00N 38°43' E 000°28'1019.8
2017-Sep-09 06:30N 38°34' E 000°21'1020.3
2017-Sep-09 06:00N 38°26' E 000°13'1520.3
2017-Sep-09 05:15N 38°13' E 000°03'3219.9
2017-Sep-09 03:39N 37°46' W 000°19'320.0
2017-Sep-09 03:30N 37°44' W 000°21'1019.9
2017-Sep-09 03:00N 37°36' W 000°28'1020.0
2017-Sep-09 02:30N 37°28' W 000°36'1019.9
2017-Sep-09 02:00N 37°20' W 000°45'1019.8
2017-Sep-09 01:30N 37°15' W 000°54'1019.9
2017-Sep-09 01:00N 37°09' W 001°04'9819.0
2017-Sep-08 19:49N 36°17' W 002°49'720.5
2017-Sep-08 19:28N 36°16' W 002°58'11120.1
2017-Sep-08 13:58N 35°60' W 005°13'920.3
2017-Sep-08 13:30N 35°58' W 005°25'8919.2
2017-Sep-08 08:53N 36°05' W 007°14'920.0
2017-Sep-08 08:27N 36°08' W 007°24'5219.8
2017-Sep-08 05:50N 36°22' W 008°26'720.5
2017-Sep-08 05:30N 36°24' W 008°34'1020.2
2017-Sep-08 05:00N 36°27' W 008°46'1020.2
2017-Sep-08 04:30N 36°29' W 008°58'1019.9
2017-Sep-08 04:00N 36°32' W 009°10'1019.1
2017-Sep-08 03:30N 36°37' W 009°21'1020.3
2017-Sep-08 03:00N 36°44' W 009°29'1019.6
2017-Sep-08 02:30N 36°53' W 009°34'1020.1
2017-Sep-08 02:00N 37°03' W 009°37'1019.7
2017-Sep-08 01:30N 37°12' W 009°40'1020.2
2017-Sep-08 01:00N 37°22' W 009°42'1020.5
2017-Sep-08 00:30N 37°32' W 009°44'1020.1
2017-Sep-08 00:00N 37°42' W 009°46'1019.9
2017-Sep-07 23:30N 37°52' W 009°48'1019.5
2017-Sep-07 23:00N 38°02' W 009°51'1020.0
2017-Sep-07 22:30N 38°11' W 009°54'1020.1
2017-Sep-07 22:00N 38°21' W 009°59'1020.5
2017-Sep-07 21:30N 38°31' W 010°01'1019.7
2017-Sep-07 21:00N 38°40' W 010°06'1020.0
2017-Sep-07 20:30N 38°50' W 010°07'1020.4
2017-Sep-07 20:00N 38°60' W 010°07'1020.9
2017-Sep-07 19:30N 39°10' W 010°07'1020.3
2017-Sep-07 19:00N 39°21' W 010°07'1020.6
2017-Sep-07 18:30N 39°31' W 010°07'1020.6
2017-Sep-07 18:00N 39°41' W 010°07'1020.6
2017-Sep-07 17:30N 39°51' W 010°07'1020.4
2017-Sep-07 17:00N 40°02' W 010°07'1020.0
2017-Sep-07 16:30N 40°12' W 010°07'1020.3
2017-Sep-07 16:00N 40°22' W 010°08'1020.2
2017-Sep-07 15:30N 40°32' W 010°08'1020.1
2017-Sep-07 15:00N 40°42' W 010°08'1720.1
2017-Sep-07 14:09N 40°59' W 010°08'319.9
2017-Sep-07 14:00N 41°02' W 010°08'1019.5
2017-Sep-07 13:30N 41°12' W 010°08'1019.7
2017-Sep-07 12:58N 41°22' W 010°08'1020.0
2017-Sep-07 12:29N 41°32' W 010°08'3619.9
2017-Sep-07 10:40N 42°08' W 010°06'50520.6
2017-Sep-06 10:07N 49°29' W 004°11'422.8
2017-Sep-06 09:57N 49°31' W 004°06'1022.3
2017-Sep-06 09:31N 49°36' W 003°53'1121.7
2017-Sep-06 09:01N 49°42' W 003°39'1020.8
2017-Sep-06 08:31N 49°48' W 003°26'1020.3
2017-Sep-06 08:01N 49°53' W 003°12'1019.7
2017-Sep-06 07:31N 49°58' W 002°59'1019.2
2017-Sep-06 07:01N 50°01' W 002°45'2819.2
2017-Sep-06 05:34N 50°08' W 002°03'119.5
2017-Sep-06 05:30N 50°08' W 002°01'1020.4
2017-Sep-06 05:00N 50°11' W 001°46'1121.4
2017-Sep-06 04:30N 50°13' W 001°30'1122.4
2017-Sep-06 04:00N 50°17' W 001°13'1223.5
2017-Sep-06 03:30N 50°20' W 000°55'1923.6
2017-Sep-06 02:43N 50°24' W 000°27'523.2
2017-Sep-06 02:30N 50°25' W 000°20'1122.8
2017-Sep-06 02:00N 50°27' W 000°02'1122.5
2017-Sep-06 01:30N 50°30' E 000°15'1121.9
2017-Sep-06 01:00N 50°34' E 000°32'1121.2
2017-Sep-06 00:30N 50°40' E 000°45'1020.7
2017-Sep-06 00:00N 50°46' E 000°58'1119.7
2017-Sep-05 23:28N 50°53' E 001°11'918.8
2017-Sep-05 23:00N 50°58' E 001°22'918.9
2017-Sep-05 22:30N 51°05' E 001°33'1019.7
2017-Sep-05 22:00N 51°12' E 001°43'1121.1
2017-Sep-05 21:30N 51°20' E 001°54'816.5
2017-Sep-05 21:01N 51°23' E 002°06'1019.3
2017-Sep-05 20:30N 51°21' E 002°21'918.8
2017-Sep-05 20:00N 51°23' E 002°36'  

Dump ship's entire track history